sensor_id;sensor_type;location;lat;lon;timestamp;P1;durP1;ratioP1;P2;durP2;ratioP2
55455;SDS011;63021;52.836;6.376;2023-12-07T00:01:17;18.80;;;11.77;;
55455;SDS011;63021;52.836;6.376;2023-12-07T00:03:43;15.52;;;11.13;;
55455;SDS011;63021;52.836;6.376;2023-12-07T00:06:08;17.83;;;11.23;;
55455;SDS011;63021;52.836;6.376;2023-12-07T00:08:34;19.63;;;11.45;;
55455;SDS011;63021;52.836;6.376;2023-12-07T00:11:00;18.30;;;11.63;;
55455;SDS011;63021;52.836;6.376;2023-12-07T00:13:25;20.10;;;12.20;;
55455;SDS011;63021;52.836;6.376;2023-12-07T00:15:53;15.95;;;11.73;;
55455;SDS011;63021;52.836;6.376;2023-12-07T00:18:19;16.65;;;11.95;;
55455;SDS011;63021;52.836;6.376;2023-12-07T00:20:45;16.30;;;12.45;;
55455;SDS011;63021;52.836;6.376;2023-12-07T00:23:10;20.17;;;12.63;;
55455;SDS011;63021;52.836;6.376;2023-12-07T00:25:36;19.67;;;12.13;;
55455;SDS011;63021;52.836;6.376;2023-12-07T00:28:02;18.50;;;11.38;;
55455;SDS011;63021;52.836;6.376;2023-12-07T00:30:28;19.98;;;13.02;;
55455;SDS011;63021;52.836;6.376;2023-12-07T00:32:57;17.50;;;12.77;;
55455;SDS011;63021;52.836;6.376;2023-12-07T00:35:22;19.20;;;12.15;;
55455;SDS011;63021;52.836;6.376;2023-12-07T00:37:48;20.73;;;12.25;;
55455;SDS011;63021;52.836;6.376;2023-12-07T00:40:14;20.83;;;13.30;;
55455;SDS011;63021;52.836;6.376;2023-12-07T00:42:39;19.02;;;11.75;;
55455;SDS011;63021;52.836;6.376;2023-12-07T00:45:05;19.83;;;12.18;;
55455;SDS011;63021;52.836;6.376;2023-12-07T00:47:34;16.40;;;12.25;;
55455;SDS011;63021;52.836;6.376;2023-12-07T00:49:59;16.83;;;11.68;;
55455;SDS011;63021;52.836;6.376;2023-12-07T00:52:25;18.98;;;12.25;;
55455;SDS011;63021;52.836;6.376;2023-12-07T00:54:50;17.25;;;12.63;;
55455;SDS011;63021;52.836;6.376;2023-12-07T00:57:18;17.95;;;12.45;;
55455;SDS011;63021;52.836;6.376;2023-12-07T00:59:44;19.27;;;12.80;;
55455;SDS011;63021;52.836;6.376;2023-12-07T01:02:09;17.17;;;12.50;;
55455;SDS011;63021;52.836;6.376;2023-12-07T01:04:35;16.75;;;12.35;;
55455;SDS011;63021;52.836;6.376;2023-12-07T01:07:00;18.75;;;12.95;;
55455;SDS011;63021;52.836;6.376;2023-12-07T01:09:29;20.52;;;12.45;;
55455;SDS011;63021;52.836;6.376;2023-12-07T01:11:54;18.30;;;12.15;;
55455;SDS011;63021;52.836;6.376;2023-12-07T01:14:20;15.93;;;12.05;;
55455;SDS011;63021;52.836;6.376;2023-12-07T01:16:49;20.08;;;12.15;;
55455;SDS011;63021;52.836;6.376;2023-12-07T01:19:15;20.08;;;12.40;;
55455;SDS011;63021;52.836;6.376;2023-12-07T01:21:40;22.38;;;11.80;;
55455;SDS011;63021;52.836;6.376;2023-12-07T01:24:09;17.23;;;11.90;;
55455;SDS011;63021;52.836;6.376;2023-12-07T01:26:35;14.13;;;10.85;;
55455;SDS011;63021;52.836;6.376;2023-12-07T01:29:01;17.50;;;11.82;;
55455;SDS011;63021;52.836;6.376;2023-12-07T01:31:27;18.33;;;11.50;;
55455;SDS011;63021;52.836;6.376;2023-12-07T01:33:56;15.93;;;11.95;;
55455;SDS011;63021;52.836;6.376;2023-12-07T01:36:21;19.35;;;11.50;;
55455;SDS011;63021;52.836;6.376;2023-12-07T01:38:47;18.70;;;11.98;;
55455;SDS011;63021;52.836;6.376;2023-12-07T01:41:13;19.50;;;12.70;;
55455;SDS011;63021;52.836;6.376;2023-12-07T01:43:44;18.23;;;11.63;;
55455;SDS011;63021;52.836;6.376;2023-12-07T01:46:11;17.63;;;11.45;;
55455;SDS011;63021;52.836;6.376;2023-12-07T01:48:36;18.38;;;11.77;;
55455;SDS011;63021;52.836;6.376;2023-12-07T01:51:01;16.00;;;11.63;;
55455;SDS011;63021;52.836;6.376;2023-12-07T01:53:27;19.10;;;12.43;;
55455;SDS011;63021;52.836;6.376;2023-12-07T01:55:53;17.48;;;12.63;;
55455;SDS011;63021;52.836;6.376;2023-12-07T01:58:20;16.92;;;11.95;;
55455;SDS011;63021;52.836;6.376;2023-12-07T02:00:46;20.02;;;11.13;;
55455;SDS011;63021;52.836;6.376;2023-12-07T02:03:12;16.05;;;11.52;;
55455;SDS011;63021;52.836;6.376;2023-12-07T02:05:42;20.42;;;11.85;;
55455;SDS011;63021;52.836;6.376;2023-12-07T02:08:10;20.20;;;12.57;;
55455;SDS011;63021;52.836;6.376;2023-12-07T02:10:36;17.10;;;11.30;;
55455;SDS011;63021;52.836;6.376;2023-12-07T02:13:01;16.80;;;11.38;;
55455;SDS011;63021;52.836;6.376;2023-12-07T02:15:28;18.30;;;11.93;;
55455;SDS011;63021;52.836;6.376;2023-12-07T02:18:06;18.40;;;11.70;;
55455;SDS011;63021;52.836;6.376;2023-12-07T02:21:00;18.33;;;12.38;;
55455;SDS011;63021;52.836;6.376;2023-12-07T02:23:35;18.25;;;12.10;;
55455;SDS011;63021;52.836;6.376;2023-12-07T02:26:05;23.80;;;12.60;;
55455;SDS011;63021;52.836;6.376;2023-12-07T02:28:33;19.58;;;11.45;;
55455;SDS011;63021;52.836;6.376;2023-12-07T02:30:59;19.23;;;12.00;;
55455;SDS011;63021;52.836;6.376;2023-12-07T02:33:24;21.00;;;13.15;;
55455;SDS011;63021;52.836;6.376;2023-12-07T02:35:50;17.27;;;11.70;;
55455;SDS011;63021;52.836;6.376;2023-12-07T02:38:15;18.75;;;12.77;;
55455;SDS011;63021;52.836;6.376;2023-12-07T02:40:42;21.00;;;12.18;;
55455;SDS011;63021;52.836;6.376;2023-12-07T02:43:11;22.30;;;12.65;;
55455;SDS011;63021;52.836;6.376;2023-12-07T02:45:37;17.90;;;12.25;;
55455;SDS011;63021;52.836;6.376;2023-12-07T02:48:02;20.48;;;12.45;;
55455;SDS011;63021;52.836;6.376;2023-12-07T02:50:28;25.35;;;13.98;;
55455;SDS011;63021;52.836;6.376;2023-12-07T02:52:53;18.83;;;12.18;;
55455;SDS011;63021;52.836;6.376;2023-12-07T02:55:21;24.90;;;14.50;;
55455;SDS011;63021;52.836;6.376;2023-12-07T02:57:46;25.23;;;14.80;;
55455;SDS011;63021;52.836;6.376;2023-12-07T03:00:11;23.23;;;14.18;;
55455;SDS011;63021;52.836;6.376;2023-12-07T03:02:39;24.50;;;15.55;;
55455;SDS011;63021;52.836;6.376;2023-12-07T03:05:05;22.52;;;14.98;;
55455;SDS011;63021;52.836;6.376;2023-12-07T03:07:32;22.80;;;14.88;;
55455;SDS011;63021;52.836;6.376;2023-12-07T03:10:00;25.85;;;15.85;;
55455;SDS011;63021;52.836;6.376;2023-12-07T03:12:27;30.42;;;15.52;;
55455;SDS011;63021;52.836;6.376;2023-12-07T03:14:53;24.67;;;15.63;;
55455;SDS011;63021;52.836;6.376;2023-12-07T03:17:18;25.63;;;15.77;;
55455;SDS011;63021;52.836;6.376;2023-12-07T03:19:43;24.05;;;15.57;;
55455;SDS011;63021;52.836;6.376;2023-12-07T03:22:09;29.50;;;16.00;;
55455;SDS011;63021;52.836;6.376;2023-12-07T03:24:36;28.85;;;15.95;;
55455;SDS011;63021;52.836;6.376;2023-12-07T03:27:02;24.55;;;15.25;;
55455;SDS011;63021;52.836;6.376;2023-12-07T03:29:28;28.08;;;16.08;;
55455;SDS011;63021;52.836;6.376;2023-12-07T03:31:54;26.60;;;16.52;;
55455;SDS011;63021;52.836;6.376;2023-12-07T03:34:19;25.58;;;15.88;;
55455;SDS011;63021;52.836;6.376;2023-12-07T03:36:48;25.05;;;15.40;;
55455;SDS011;63021;52.836;6.376;2023-12-07T03:39:14;26.77;;;16.13;;
55455;SDS011;63021;52.836;6.376;2023-12-07T03:41:43;26.83;;;17.00;;
55455;SDS011;63021;52.836;6.376;2023-12-07T03:44:09;27.98;;;18.15;;
55455;SDS011;63021;52.836;6.376;2023-12-07T03:46:34;30.60;;;17.23;;
55455;SDS011;63021;52.836;6.376;2023-12-07T03:49:00;31.30;;;17.98;;
55455;SDS011;63021;52.836;6.376;2023-12-07T03:51:26;29.02;;;18.48;;
55455;SDS011;63021;52.836;6.376;2023-12-07T03:53:53;30.13;;;17.10;;
55455;SDS011;63021;52.836;6.376;2023-12-07T03:56:22;28.05;;;17.58;;
55455;SDS011;63021;52.836;6.376;2023-12-07T03:58:48;30.27;;;18.23;;
55455;SDS011;63021;52.836;6.376;2023-12-07T04:01:13;29.95;;;17.30;;
55455;SDS011;63021;52.836;6.376;2023-12-07T04:03:39;28.90;;;17.92;;
55455;SDS011;63021;52.836;6.376;2023-12-07T04:06:04;33.50;;;18.73;;
55455;SDS011;63021;52.836;6.376;2023-12-07T04:08:30;31.67;;;18.38;;
55455;SDS011;63021;52.836;6.376;2023-12-07T04:10:55;28.38;;;16.73;;
55455;SDS011;63021;52.836;6.376;2023-12-07T04:13:21;31.70;;;18.50;;
55455;SDS011;63021;52.836;6.376;2023-12-07T04:15:46;28.25;;;17.33;;
55455;SDS011;63021;52.836;6.376;2023-12-07T04:18:11;32.10;;;17.70;;
55455;SDS011;63021;52.836;6.376;2023-12-07T04:20:37;31.17;;;18.35;;
55455;SDS011;63021;52.836;6.376;2023-12-07T04:23:05;33.83;;;18.77;;
55455;SDS011;63021;52.836;6.376;2023-12-07T04:25:31;30.70;;;18.92;;
55455;SDS011;63021;52.836;6.376;2023-12-07T04:27:56;30.98;;;18.40;;
55455;SDS011;63021;52.836;6.376;2023-12-07T04:30:22;34.00;;;18.63;;
55455;SDS011;63021;52.836;6.376;2023-12-07T04:32:47;30.33;;;18.13;;
55455;SDS011;63021;52.836;6.376;2023-12-07T04:35:13;32.58;;;18.08;;
55455;SDS011;63021;52.836;6.376;2023-12-07T04:37:38;30.15;;;17.15;;
55455;SDS011;63021;52.836;6.376;2023-12-07T04:40:04;30.00;;;18.38;;
55455;SDS011;63021;52.836;6.376;2023-12-07T04:42:30;28.80;;;17.83;;
55455;SDS011;63021;52.836;6.376;2023-12-07T04:44:56;31.92;;;18.63;;
55455;SDS011;63021;52.836;6.376;2023-12-07T04:47:21;29.92;;;17.98;;
55455;SDS011;63021;52.836;6.376;2023-12-07T04:49:48;36.25;;;18.60;;
55455;SDS011;63021;52.836;6.376;2023-12-07T04:52:14;31.67;;;18.58;;
55455;SDS011;63021;52.836;6.376;2023-12-07T04:54:39;33.55;;;19.63;;
55455;SDS011;63021;52.836;6.376;2023-12-07T04:57:04;33.47;;;18.15;;
55455;SDS011;63021;52.836;6.376;2023-12-07T04:59:30;30.33;;;18.80;;
55455;SDS011;63021;52.836;6.376;2023-12-07T05:01:55;35.33;;;19.05;;
55455;SDS011;63021;52.836;6.376;2023-12-07T05:04:21;31.50;;;18.77;;
55455;SDS011;63021;52.836;6.376;2023-12-07T05:06:46;35.42;;;19.25;;
55455;SDS011;63021;52.836;6.376;2023-12-07T05:09:12;37.35;;;19.55;;
55455;SDS011;63021;52.836;6.376;2023-12-07T05:11:37;31.42;;;19.13;;
55455;SDS011;63021;52.836;6.376;2023-12-07T05:14:03;39.47;;;20.35;;
55455;SDS011;63021;52.836;6.376;2023-12-07T05:16:28;31.63;;;19.40;;
55455;SDS011;63021;52.836;6.376;2023-12-07T05:18:54;31.13;;;19.17;;
55455;SDS011;63021;52.836;6.376;2023-12-07T05:21:20;32.47;;;18.38;;
55455;SDS011;63021;52.836;6.376;2023-12-07T05:23:46;29.17;;;18.08;;
55455;SDS011;63021;52.836;6.376;2023-12-07T05:26:11;33.40;;;17.73;;
55455;SDS011;63021;52.836;6.376;2023-12-07T05:28:36;34.33;;;17.70;;
55455;SDS011;63021;52.836;6.376;2023-12-07T05:31:03;29.00;;;17.05;;
55455;SDS011;63021;52.836;6.376;2023-12-07T05:33:28;28.42;;;17.65;;
55455;SDS011;63021;52.836;6.376;2023-12-07T05:35:54;30.95;;;18.33;;
55455;SDS011;63021;52.836;6.376;2023-12-07T05:38:20;27.58;;;18.35;;
55455;SDS011;63021;52.836;6.376;2023-12-07T05:40:45;28.38;;;17.35;;
55455;SDS011;63021;52.836;6.376;2023-12-07T05:43:10;31.65;;;19.02;;
55455;SDS011;63021;52.836;6.376;2023-12-07T05:45:36;31.95;;;18.25;;
55455;SDS011;63021;52.836;6.376;2023-12-07T05:48:01;30.52;;;18.17;;
55455;SDS011;63021;52.836;6.376;2023-12-07T05:50:27;29.25;;;17.90;;
55455;SDS011;63021;52.836;6.376;2023-12-07T05:52:52;32.95;;;17.98;;
55455;SDS011;63021;52.836;6.376;2023-12-07T05:55:18;30.65;;;18.33;;
55455;SDS011;63021;52.836;6.376;2023-12-07T05:57:44;32.10;;;20.00;;
55455;SDS011;63021;52.836;6.376;2023-12-07T06:00:11;30.45;;;18.50;;
55455;SDS011;63021;52.836;6.376;2023-12-07T06:02:37;33.03;;;19.08;;
55455;SDS011;63021;52.836;6.376;2023-12-07T06:05:03;31.80;;;19.40;;
55455;SDS011;63021;52.836;6.376;2023-12-07T06:07:31;31.38;;;20.58;;
55455;SDS011;63021;52.836;6.376;2023-12-07T06:09:57;33.00;;;19.75;;
55455;SDS011;63021;52.836;6.376;2023-12-07T06:12:22;33.13;;;19.63;;
55455;SDS011;63021;52.836;6.376;2023-12-07T06:14:48;37.35;;;19.52;;
55455;SDS011;63021;52.836;6.376;2023-12-07T06:17:14;36.67;;;19.48;;
55455;SDS011;63021;52.836;6.376;2023-12-07T06:19:39;32.30;;;18.38;;
55455;SDS011;63021;52.836;6.376;2023-12-07T06:22:06;29.13;;;17.98;;
55455;SDS011;63021;52.836;6.376;2023-12-07T06:24:31;32.55;;;17.65;;
55455;SDS011;63021;52.836;6.376;2023-12-07T06:26:57;31.52;;;18.80;;
55455;SDS011;63021;52.836;6.376;2023-12-07T06:29:23;34.05;;;19.23;;
55455;SDS011;63021;52.836;6.376;2023-12-07T06:31:49;39.40;;;19.98;;
55455;SDS011;63021;52.836;6.376;2023-12-07T06:34:14;32.38;;;18.13;;
55455;SDS011;63021;52.836;6.376;2023-12-07T06:36:39;29.40;;;18.65;;
55455;SDS011;63021;52.836;6.376;2023-12-07T06:39:05;34.58;;;19.38;;
55455;SDS011;63021;52.836;6.376;2023-12-07T06:41:30;32.42;;;18.33;;
55455;SDS011;63021;52.836;6.376;2023-12-07T06:43:56;29.90;;;18.08;;
55455;SDS011;63021;52.836;6.376;2023-12-07T06:46:21;27.77;;;18.55;;
55455;SDS011;63021;52.836;6.376;2023-12-07T06:48:46;28.48;;;17.80;;
55455;SDS011;63021;52.836;6.376;2023-12-07T06:51:12;29.38;;;17.40;;
55455;SDS011;63021;52.836;6.376;2023-12-07T06:53:39;32.38;;;17.50;;
55455;SDS011;63021;52.836;6.376;2023-12-07T06:56:08;31.00;;;18.52;;
55455;SDS011;63021;52.836;6.376;2023-12-07T06:58:34;31.23;;;19.60;;
55455;SDS011;63021;52.836;6.376;2023-12-07T07:00:59;34.20;;;19.42;;
55455;SDS011;63021;52.836;6.376;2023-12-07T07:03:25;32.40;;;19.50;;
55455;SDS011;63021;52.836;6.376;2023-12-07T07:05:52;31.17;;;19.02;;
55455;SDS011;63021;52.836;6.376;2023-12-07T07:08:18;33.90;;;19.88;;
55455;SDS011;63021;52.836;6.376;2023-12-07T07:10:44;32.22;;;19.83;;
55455;SDS011;63021;52.836;6.376;2023-12-07T07:13:10;32.70;;;20.20;;
55455;SDS011;63021;52.836;6.376;2023-12-07T07:15:36;37.03;;;21.55;;
55455;SDS011;63021;52.836;6.376;2023-12-07T07:18:01;32.53;;;20.08;;
55455;SDS011;63021;52.836;6.376;2023-12-07T07:20:27;33.67;;;21.70;;
55455;SDS011;63021;52.836;6.376;2023-12-07T07:22:52;31.85;;;20.38;;
55455;SDS011;63021;52.836;6.376;2023-12-07T07:25:18;30.40;;;19.63;;
55455;SDS011;63021;52.836;6.376;2023-12-07T07:27:45;41.40;;;21.38;;
55455;SDS011;63021;52.836;6.376;2023-12-07T07:30:11;40.25;;;23.42;;
55455;SDS011;63021;52.836;6.376;2023-12-07T07:32:37;39.20;;;22.33;;
55455;SDS011;63021;52.836;6.376;2023-12-07T07:35:03;44.72;;;22.17;;
55455;SDS011;63021;52.836;6.376;2023-12-07T07:37:29;34.30;;;21.33;;
55455;SDS011;63021;52.836;6.376;2023-12-07T07:39:54;32.22;;;21.02;;
55455;SDS011;63021;52.836;6.376;2023-12-07T07:42:20;33.95;;;19.92;;
55455;SDS011;63021;52.836;6.376;2023-12-07T07:44:48;31.60;;;19.42;;
55455;SDS011;63021;52.836;6.376;2023-12-07T07:47:13;29.10;;;19.15;;
55455;SDS011;63021;52.836;6.376;2023-12-07T07:49:39;29.63;;;19.33;;
55455;SDS011;63021;52.836;6.376;2023-12-07T07:52:04;32.47;;;17.70;;
55455;SDS011;63021;52.836;6.376;2023-12-07T07:54:30;27.95;;;16.80;;
55455;SDS011;63021;52.836;6.376;2023-12-07T07:56:55;31.63;;;18.08;;
55455;SDS011;63021;52.836;6.376;2023-12-07T07:59:21;30.10;;;17.77;;
55455;SDS011;63021;52.836;6.376;2023-12-07T08:01:46;32.17;;;19.25;;
55455;SDS011;63021;52.836;6.376;2023-12-07T08:04:12;28.35;;;17.95;;
55455;SDS011;63021;52.836;6.376;2023-12-07T08:06:38;32.00;;;19.05;;
55455;SDS011;63021;52.836;6.376;2023-12-07T08:09:03;32.28;;;18.52;;
55455;SDS011;63021;52.836;6.376;2023-12-07T08:11:29;30.65;;;18.90;;
55455;SDS011;63021;52.836;6.376;2023-12-07T08:13:54;31.55;;;19.80;;
55455;SDS011;63021;52.836;6.376;2023-12-07T08:16:20;32.70;;;20.58;;
55455;SDS011;63021;52.836;6.376;2023-12-07T08:18:45;35.30;;;19.80;;
55455;SDS011;63021;52.836;6.376;2023-12-07T08:21:21;36.05;;;20.42;;
55455;SDS011;63021;52.836;6.376;2023-12-07T08:23:47;37.42;;;19.42;;
55455;SDS011;63021;52.836;6.376;2023-12-07T08:26:13;35.75;;;21.02;;
55455;SDS011;63021;52.836;6.376;2023-12-07T08:28:40;33.97;;;21.08;;
55455;SDS011;63021;52.836;6.376;2023-12-07T08:31:05;35.00;;;22.38;;
55455;SDS011;63021;52.836;6.376;2023-12-07T08:33:31;35.08;;;21.73;;
55455;SDS011;63021;52.836;6.376;2023-12-07T08:35:59;36.92;;;23.23;;
55455;SDS011;63021;52.836;6.376;2023-12-07T08:38:24;36.38;;;22.30;;
55455;SDS011;63021;52.836;6.376;2023-12-07T08:40:50;39.97;;;23.73;;
55455;SDS011;63021;52.836;6.376;2023-12-07T08:43:16;34.80;;;22.05;;
55455;SDS011;63021;52.836;6.376;2023-12-07T08:45:41;35.13;;;22.83;;
55455;SDS011;63021;52.836;6.376;2023-12-07T08:48:07;39.67;;;21.67;;
55455;SDS011;63021;52.836;6.376;2023-12-07T08:50:32;31.95;;;21.73;;
55455;SDS011;63021;52.836;6.376;2023-12-07T08:52:58;34.10;;;22.83;;
55455;SDS011;63021;52.836;6.376;2023-12-07T08:55:23;35.20;;;22.23;;
55455;SDS011;63021;52.836;6.376;2023-12-07T08:57:48;36.45;;;23.35;;
55455;SDS011;63021;52.836;6.376;2023-12-07T09:00:14;40.60;;;23.23;;
55455;SDS011;63021;52.836;6.376;2023-12-07T09:02:42;39.03;;;23.80;;
55455;SDS011;63021;52.836;6.376;2023-12-07T09:05:07;38.78;;;22.83;;
55455;SDS011;63021;52.836;6.376;2023-12-07T09:07:34;37.33;;;24.15;;
55455;SDS011;63021;52.836;6.376;2023-12-07T09:09:59;46.10;;;24.38;;
55455;SDS011;63021;52.836;6.376;2023-12-07T09:12:24;39.15;;;22.95;;
55455;SDS011;63021;52.836;6.376;2023-12-07T09:14:50;37.60;;;24.42;;
55455;SDS011;63021;52.836;6.376;2023-12-07T09:17:16;41.72;;;23.85;;
55455;SDS011;63021;52.836;6.376;2023-12-07T09:19:44;39.65;;;22.85;;
55455;SDS011;63021;52.836;6.376;2023-12-07T09:22:09;38.70;;;23.73;;
55455;SDS011;63021;52.836;6.376;2023-12-07T09:24:38;50.38;;;26.88;;
55455;SDS011;63021;52.836;6.376;2023-12-07T09:27:05;41.90;;;25.88;;
55455;SDS011;63021;52.836;6.376;2023-12-07T09:29:30;59.72;;;25.50;;
55455;SDS011;63021;52.836;6.376;2023-12-07T09:31:55;44.22;;;24.58;;
55455;SDS011;63021;52.836;6.376;2023-12-07T09:34:21;50.10;;;25.42;;
55455;SDS011;63021;52.836;6.376;2023-12-07T09:36:47;50.42;;;25.77;;
55455;SDS011;63021;52.836;6.376;2023-12-07T09:39:13;41.60;;;23.55;;
55455;SDS011;63021;52.836;6.376;2023-12-07T09:41:39;44.53;;;24.98;;
55455;SDS011;63021;52.836;6.376;2023-12-07T09:44:08;82.90;;;26.98;;
55455;SDS011;63021;52.836;6.376;2023-12-07T09:46:33;39.45;;;24.10;;
55455;SDS011;63021;52.836;6.376;2023-12-07T09:48:59;44.05;;;23.17;;
55455;SDS011;63021;52.836;6.376;2023-12-07T09:51:25;43.85;;;21.73;;
55455;SDS011;63021;52.836;6.376;2023-12-07T09:53:52;58.72;;;24.42;;
55455;SDS011;63021;52.836;6.376;2023-12-07T09:56:19;49.20;;;22.58;;
55455;SDS011;63021;52.836;6.376;2023-12-07T09:58:45;59.35;;;22.38;;
55455;SDS011;63021;52.836;6.376;2023-12-07T10:01:10;40.75;;;21.85;;
55455;SDS011;63021;52.836;6.376;2023-12-07T10:03:38;54.45;;;22.85;;
55455;SDS011;63021;52.836;6.376;2023-12-07T10:06:04;47.05;;;22.35;;
55455;SDS011;63021;52.836;6.376;2023-12-07T10:08:30;58.72;;;21.55;;
55455;SDS011;63021;52.836;6.376;2023-12-07T10:13:33;45.70;;;22.25;;
55455;SDS011;63021;52.836;6.376;2023-12-07T10:18:32;37.30;;;20.20;;
55455;SDS011;63021;52.836;6.376;2023-12-07T10:20:57;50.10;;;20.85;;
55455;SDS011;63021;52.836;6.376;2023-12-07T10:23:23;44.78;;;20.25;;
55455;SDS011;63021;52.836;6.376;2023-12-07T10:25:50;33.80;;;18.15;;
55455;SDS011;63021;52.836;6.376;2023-12-07T10:28:15;30.73;;;18.95;;
55455;SDS011;63021;52.836;6.376;2023-12-07T10:30:42;29.45;;;18.45;;
55455;SDS011;63021;52.836;6.376;2023-12-07T10:33:09;44.10;;;18.33;;
55455;SDS011;63021;52.836;6.376;2023-12-07T10:35:44;32.55;;;17.85;;
55455;SDS011;63021;52.836;6.376;2023-12-07T10:38:10;28.13;;;17.70;;
55455;SDS011;63021;52.836;6.376;2023-12-07T10:40:36;39.45;;;19.75;;
55455;SDS011;63021;52.836;6.376;2023-12-07T10:43:04;50.10;;;18.52;;
55455;SDS011;63021;52.836;6.376;2023-12-07T10:45:30;49.45;;;19.55;;
55455;SDS011;63021;52.836;6.376;2023-12-07T10:47:58;34.03;;;19.13;;
55455;SDS011;63021;52.836;6.376;2023-12-07T10:50:34;37.05;;;18.48;;
55455;SDS011;63021;52.836;6.376;2023-12-07T10:53:02;43.58;;;19.27;;
55455;SDS011;63021;52.836;6.376;2023-12-07T10:55:34;39.92;;;18.05;;
55455;SDS011;63021;52.836;6.376;2023-12-07T10:58:08;68.88;;;20.23;;
55455;SDS011;63021;52.836;6.376;2023-12-07T11:00:35;49.63;;;20.60;;
55455;SDS011;63021;52.836;6.376;2023-12-07T11:03:01;40.45;;;19.67;;
55455;SDS011;63021;52.836;6.376;2023-12-07T11:05:28;55.70;;;21.05;;
55455;SDS011;63021;52.836;6.376;2023-12-07T11:10:38;37.42;;;20.63;;
55455;SDS011;63021;52.836;6.376;2023-12-07T11:13:26;38.17;;;21.45;;
55455;SDS011;63021;52.836;6.376;2023-12-07T11:15:55;46.03;;;21.17;;
55455;SDS011;63021;52.836;6.376;2023-12-07T11:18:24;73.32;;;22.33;;
55455;SDS011;63021;52.836;6.376;2023-12-07T11:20:50;32.50;;;19.50;;
55455;SDS011;63021;52.836;6.376;2023-12-07T11:23:18;34.88;;;20.45;;
55455;SDS011;63021;52.836;6.376;2023-12-07T11:25:45;38.38;;;20.80;;
55455;SDS011;63021;52.836;6.376;2023-12-07T11:28:11;58.63;;;20.63;;
55455;SDS011;63021;52.836;6.376;2023-12-07T11:30:38;37.40;;;21.02;;
55455;SDS011;63021;52.836;6.376;2023-12-07T11:33:06;50.17;;;22.70;;
55455;SDS011;63021;52.836;6.376;2023-12-07T11:38:26;66.00;;;23.30;;
55455;SDS011;63021;52.836;6.376;2023-12-07T11:40:52;77.35;;;23.73;;
55455;SDS011;63021;52.836;6.376;2023-12-07T11:45:58;67.82;;;23.25;;
55455;SDS011;63021;52.836;6.376;2023-12-07T11:48:24;35.80;;;21.98;;
55455;SDS011;63021;52.836;6.376;2023-12-07T11:51:00;57.92;;;22.58;;
55455;SDS011;63021;52.836;6.376;2023-12-07T11:53:27;50.30;;;24.13;;
55455;SDS011;63021;52.836;6.376;2023-12-07T11:55:54;48.60;;;21.90;;
55455;SDS011;63021;52.836;6.376;2023-12-07T11:58:21;44.60;;;23.48;;
55455;SDS011;63021;52.836;6.376;2023-12-07T12:00:47;52.50;;;21.90;;
55455;SDS011;63021;52.836;6.376;2023-12-07T12:03:13;45.92;;;23.58;;
55455;SDS011;63021;52.836;6.376;2023-12-07T12:05:39;39.72;;;24.00;;
55455;SDS011;63021;52.836;6.376;2023-12-07T12:08:06;37.70;;;23.15;;
55455;SDS011;63021;52.836;6.376;2023-12-07T12:10:31;43.83;;;23.05;;
55455;SDS011;63021;52.836;6.376;2023-12-07T12:13:00;55.60;;;22.35;;
55455;SDS011;63021;52.836;6.376;2023-12-07T12:15:28;48.15;;;21.95;;
55455;SDS011;63021;52.836;6.376;2023-12-07T12:17:55;38.10;;;23.13;;
55455;SDS011;63021;52.836;6.376;2023-12-07T12:20:24;40.22;;;24.05;;
55455;SDS011;63021;52.836;6.376;2023-12-07T12:22:50;45.05;;;22.45;;
55455;SDS011;63021;52.836;6.376;2023-12-07T12:25:23;46.30;;;23.77;;
55455;SDS011;63021;52.836;6.376;2023-12-07T12:27:52;42.10;;;21.80;;
55455;SDS011;63021;52.836;6.376;2023-12-07T12:30:19;43.45;;;23.58;;
55455;SDS011;63021;52.836;6.376;2023-12-07T12:32:46;45.17;;;23.85;;
55455;SDS011;63021;52.836;6.376;2023-12-07T12:35:12;44.40;;;22.00;;
55455;SDS011;63021;52.836;6.376;2023-12-07T12:37:41;42.47;;;24.45;;
55455;SDS011;63021;52.836;6.376;2023-12-07T12:40:08;45.03;;;23.50;;
55455;SDS011;63021;52.836;6.376;2023-12-07T12:42:35;51.08;;;24.13;;
55455;SDS011;63021;52.836;6.376;2023-12-07T12:45:04;49.15;;;25.30;;
55455;SDS011;63021;52.836;6.376;2023-12-07T12:47:30;47.92;;;22.65;;
55455;SDS011;63021;52.836;6.376;2023-12-07T12:49:56;48.38;;;21.67;;
55455;SDS011;63021;52.836;6.376;2023-12-07T12:52:23;47.88;;;23.70;;
55455;SDS011;63021;52.836;6.376;2023-12-07T12:54:50;45.42;;;22.63;;
55455;SDS011;63021;52.836;6.376;2023-12-07T12:57:16;51.03;;;24.23;;
55455;SDS011;63021;52.836;6.376;2023-12-07T12:59:46;41.85;;;22.25;;
55455;SDS011;63021;52.836;6.376;2023-12-07T13:02:13;43.10;;;23.00;;
55455;SDS011;63021;52.836;6.376;2023-12-07T13:04:38;46.90;;;23.73;;
55455;SDS011;63021;52.836;6.376;2023-12-07T13:07:05;39.30;;;22.38;;
55455;SDS011;63021;52.836;6.376;2023-12-07T13:09:30;50.42;;;21.98;;
55455;SDS011;63021;52.836;6.376;2023-12-07T13:11:56;49.13;;;23.20;;
55455;SDS011;63021;52.836;6.376;2023-12-07T13:14:22;44.92;;;23.52;;
55455;SDS011;63021;52.836;6.376;2023-12-07T13:16:48;51.83;;;24.52;;
55455;SDS011;63021;52.836;6.376;2023-12-07T13:19:13;50.00;;;22.42;;
55455;SDS011;63021;52.836;6.376;2023-12-07T13:21:38;46.53;;;22.63;;
55455;SDS011;63021;52.836;6.376;2023-12-07T13:24:04;51.85;;;24.52;;
55455;SDS011;63021;52.836;6.376;2023-12-07T13:26:30;52.25;;;24.70;;
55455;SDS011;63021;52.836;6.376;2023-12-07T13:28:56;50.08;;;23.17;;
55455;SDS011;63021;52.836;6.376;2023-12-07T13:31:21;54.55;;;25.25;;
55455;SDS011;63021;52.836;6.376;2023-12-07T13:33:47;56.90;;;24.30;;
55455;SDS011;63021;52.836;6.376;2023-12-07T13:36:13;48.47;;;24.40;;
55455;SDS011;63021;52.836;6.376;2023-12-07T13:38:39;56.25;;;24.88;;
55455;SDS011;63021;52.836;6.376;2023-12-07T13:41:05;52.58;;;23.25;;
55455;SDS011;63021;52.836;6.376;2023-12-07T13:43:32;54.15;;;24.30;;
55455;SDS011;63021;52.836;6.376;2023-12-07T13:45:58;52.80;;;25.27;;
55455;SDS011;63021;52.836;6.376;2023-12-07T13:48:24;53.45;;;26.30;;
55455;SDS011;63021;52.836;6.376;2023-12-07T13:50:50;62.28;;;26.10;;
55455;SDS011;63021;52.836;6.376;2023-12-07T13:53:15;54.40;;;27.27;;
55455;SDS011;63021;52.836;6.376;2023-12-07T13:55:41;50.47;;;23.67;;
55455;SDS011;63021;52.836;6.376;2023-12-07T13:58:06;62.17;;;25.40;;
55455;SDS011;63021;52.836;6.376;2023-12-07T14:00:32;63.00;;;25.88;;
55455;SDS011;63021;52.836;6.376;2023-12-07T14:02:59;55.50;;;22.83;;
55455;SDS011;63021;52.836;6.376;2023-12-07T14:05:28;71.75;;;27.58;;
55455;SDS011;63021;52.836;6.376;2023-12-07T14:07:54;62.40;;;25.15;;
55455;SDS011;63021;52.836;6.376;2023-12-07T14:10:20;62.25;;;26.13;;
55455;SDS011;63021;52.836;6.376;2023-12-07T14:12:46;62.15;;;25.23;;
55455;SDS011;63021;52.836;6.376;2023-12-07T14:15:11;67.05;;;25.48;;
55455;SDS011;63021;52.836;6.376;2023-12-07T14:17:37;65.47;;;25.40;;
55455;SDS011;63021;52.836;6.376;2023-12-07T14:20:08;60.22;;;24.75;;
55455;SDS011;63021;52.836;6.376;2023-12-07T14:22:34;68.40;;;27.10;;
55455;SDS011;63021;52.836;6.376;2023-12-07T14:25:00;65.65;;;26.65;;
55455;SDS011;63021;52.836;6.376;2023-12-07T14:27:26;65.35;;;26.10;;
55455;SDS011;63021;52.836;6.376;2023-12-07T14:29:52;68.30;;;27.40;;